Time;durP1;ratioP1;P1;durP2;ratioP2;P2;SDS_P1;SDS_P2;PMS_P1;PMS_P2;Temp;Humidity;BMP_temperature;BMP_pressure;BME280_temperature;BME280_humidity;BME280_pressure;Samples;Min_cycle;Max_cycle;Signal;HPM_P1;HPM_P2
2022/04/18 00:02:44;;;;;;;8.90;3.40;;;6.40;76.80;;;;;;5045484;28;20439;-86
2022/04/18 00:05:30;;;;;;;7.03;3.43;;;6.40;77.50;;;;;;5043120;28;20580;-85
2022/04/18 00:08:15;;;;;;;6.73;3.60;;;6.20;77.60;;;;;;5053624;28;20875;-86
2022/04/18 00:11:01;;;;;;;4.97;3.50;;;6.20;77.80;;;;;;5049240;28;20462;-86
2022/04/18 00:13:46;;;;;;;4.37;3.40;;;6.20;78.30;;;;;;5041449;28;20419;-86
2022/04/18 00:16:32;;;;;;;4.63;3.30;;;6.20;78.30;;;;;;5048897;28;21008;-85
2022/04/18 00:19:19;;;;;;;5.10;3.37;;;6.20;78.50;;;;;;5051023;28;20514;-86
2022/04/18 00:22:06;;;;;;;4.23;3.47;;;6.20;78.20;;;;;;5051323;28;20486;-86
2022/04/18 00:24:52;;;;;;;5.80;3.50;;;6.40;78.50;;;;;;5046883;28;20450;-86
2022/04/18 00:27:38;;;;;;;4.30;3.10;;;6.30;79.00;;;;;;5049603;28;20451;-86
2022/04/18 00:30:24;;;;;;;4.40;3.07;;;6.30;78.80;;;;;;5048812;28;20512;-86
2022/04/18 00:33:10;;;;;;;4.87;3.10;;;6.30;79.70;;;;;;5048560;28;20440;-86
2022/04/18 00:35:57;;;;;;;5.77;2.90;;;6.10;79.30;;;;;;5046758;28;20468;-85
2022/04/18 00:38:44;;;;;;;3.93;2.70;;;6.10;79.30;;;;;;5048843;28;20809;-86
2022/04/18 00:41:29;;;;;;;4.43;2.20;;;6.00;80.30;;;;;;5044474;28;20972;-87
2022/04/18 00:44:15;;;;;;;4.03;2.73;;;6.00;79.70;;;;;;5043367;28;21033;-86
2022/04/18 00:47:01;;;;;;;3.73;2.60;;;6.10;80.00;;;;;;5049521;28;20418;-86
2022/04/18 00:49:47;;;;;;;4.10;2.63;;;6.10;80.20;;;;;;5051115;28;20502;-87
2022/04/18 00:52:36;;;;;;;4.90;2.90;;;6.10;80.00;;;;;;5046963;28;20565;-86
2022/04/18 00:55:24;;;;;;;3.20;2.30;;;6.10;79.90;;;;;;5042789;28;20475;-86
2022/04/18 00:58:11;;;;;;;3.40;2.20;;;6.10;79.80;;;;;;5050847;28;20780;-86
2022/04/18 01:00:57;;;;;;;5.30;2.63;;;6.20;79.80;;;;;;5049844;28;20409;-86
2022/04/18 01:03:43;;;;;;;3.10;2.43;;;6.30;79.20;;;;;;5045109;28;20419;-86
2022/04/18 01:06:29;;;;;;;4.67;2.13;;;6.40;78.90;;;;;;5046566;28;20983;-86
2022/04/18 01:09:17;;;;;;;4.60;2.37;;;6.40;78.70;;;;;;5045110;28;20419;-86
2022/04/18 01:12:03;;;;;;;6.53;3.23;;;6.40;78.50;;;;;;5047417;28;21240;-86
2022/04/18 01:14:50;;;;;;;4.50;2.93;;;6.20;78.60;;;;;;5045428;28;20946;-85
2022/04/18 01:17:36;;;;;;;3.47;2.37;;;6.10;79.70;;;;;;5039293;28;20843;-86
2022/04/18 01:20:21;;;;;;;4.83;2.37;;;6.20;80.30;;;;;;5049230;28;20439;-86
2022/04/18 01:23:09;;;;;;;5.63;2.70;;;6.40;79.20;;;;;;5044352;28;20434;-86
2022/04/18 01:29:01;;;;;;;4.73;2.83;;;6.20;79.90;;;;;;5042801;28;20940;-86
2022/04/18 01:31:47;;;;;;;5.77;3.60;;;6.10;80.30;;;;;;5047879;28;20508;-86
2022/04/18 01:34:33;;;;;;;4.30;3.07;;;6.20;80.00;;;;;;5043500;28;20453;-86
2022/04/18 01:37:18;;;;;;;6.30;3.50;;;6.30;79.60;;;;;;5046906;28;20534;-86
2022/04/18 01:40:07;;;;;;;10.47;4.40;;;6.20;80.00;;;;;;5048641;28;21058;-87
2022/04/18 01:42:52;;;;;;;7.60;3.80;;;6.00;79.00;;;;;;5042682;28;20442;-87
2022/04/18 01:45:38;;;;;;;3.00;2.40;;;6.00;79.50;;;;;;5045675;28;20918;-84
2022/04/18 01:48:24;;;;;;;5.20;3.10;;;6.00;79.90;;;;;;5049389;28;20426;-84
2022/04/18 01:51:10;;;;;;;4.13;3.20;;;5.90;79.60;;;;;;5044070;28;20446;-84
2022/04/18 01:53:55;;;;;;;5.70;3.60;;;6.00;79.40;;;;;;5042980;28;20931;-84
2022/04/18 01:56:42;;;;;;;4.50;2.90;;;6.10;79.60;;;;;;5047012;28;20481;-85
2022/04/18 01:59:28;;;;;;;5.83;3.10;;;6.10;79.50;;;;;;5047111;28;21017;-85
2022/04/18 02:02:13;;;;;;;3.23;2.47;;;6.20;79.60;;;;;;5043916;28;20417;-84
2022/04/18 02:05:00;;;;;;;6.70;3.20;;;6.30;79.20;;;;;;5049614;28;20840;-84
2022/04/18 02:07:45;;;;;;;4.97;3.40;;;6.30;79.20;;;;;;5051578;28;20463;-85
2022/04/18 02:10:31;;;;;;;4.80;2.93;;;6.20;78.80;;;;;;5048207;28;20471;-84
2022/04/18 02:13:18;;;;;;;5.37;2.80;;;6.00;78.50;;;;;;5042870;28;20453;-84
2022/04/18 02:16:04;;;;;;;4.50;2.73;;;6.00;79.50;;;;;;5047579;28;20460;-85
2022/04/18 02:18:49;;;;;;;5.07;2.47;;;6.00;79.90;;;;;;5045750;28;20418;-84
2022/04/18 02:21:35;;;;;;;3.40;2.63;;;5.90;80.00;;;;;;5043867;28;20448;-83
2022/04/18 02:24:20;;;;;;;3.80;2.87;;;5.80;80.40;;;;;;5047563;28;20533;-84
2022/04/18 02:27:07;;;;;;;3.23;2.47;;;5.70;81.10;;;;;;5050768;28;20800;-84
2022/04/18 02:29:54;;;;;;;4.30;3.00;;;5.70;81.80;;;;;;5045730;28;20437;-85
2022/04/18 02:32:48;;;;;;;3.90;2.57;;;5.80;81.30;;;;;;5045472;28;20491;-84
2022/04/18 02:35:34;;;;;;;6.40;2.90;;;5.90;81.20;;;;;;5047311;28;20461;-84
2022/04/18 02:38:19;;;;;;;4.77;3.00;;;5.90;81.10;;;;;;5047590;28;20444;-84
2022/04/18 02:41:05;;;;;;;6.00;3.30;;;5.70;80.80;;;;;;5047652;28;20463;-83
2022/04/18 02:43:51;;;;;;;4.47;3.07;;;5.70;81.20;;;;;;5044318;28;20439;-84
2022/04/18 02:46:37;;;;;;;3.97;2.67;;;5.50;80.70;;;;;;5043797;28;20985;-84
2022/04/18 02:49:23;;;;;;;5.03;3.33;;;5.50;81.80;;;;;;5043356;28;20447;-83
2022/04/18 02:52:09;;;;;;;5.80;3.60;;;5.60;82.00;;;;;;5043322;28;20971;-84
2022/04/18 02:54:55;;;;;;;6.47;3.30;;;5.50;81.70;;;;;;5043442;28;20581;-84
2022/04/18 02:57:41;;;;;;;8.53;3.70;;;5.60;81.80;;;;;;5046653;28;20448;-83
2022/04/18 03:00:26;;;;;;;5.57;3.07;;;5.50;81.40;;;;;;5043912;28;20446;-84
2022/04/18 03:03:13;;;;;;;6.50;3.07;;;5.60;81.90;;;;;;5043337;28;20502;-84
2022/04/18 03:05:59;;;;;;;3.40;2.90;;;5.50;82.20;;;;;;5046703;28;20482;-83
2022/04/18 03:08:45;;;;;;;6.43;2.83;;;5.60;82.30;;;;;;5046317;28;20967;-84
2022/04/18 03:11:31;;;;;;;7.40;3.50;;;5.60;81.50;;;;;;5042784;28;20571;-84
2022/04/18 03:14:16;;;;;;;6.30;3.90;;;5.70;81.60;;;;;;5045575;28;20460;-84
2022/04/18 03:17:03;;;;;;;4.50;3.40;;;5.70;81.00;;;;;;5044799;28;20425;-83
2022/04/18 03:19:52;;;;;;;4.60;2.97;;;5.70;81.30;;;;;;5045283;28;20433;-83
2022/04/18 03:22:38;;;;;;;6.47;3.70;;;5.80;81.00;;;;;;5039744;28;20451;-84
2022/04/18 03:25:24;;;;;;;5.23;3.50;;;5.80;81.10;;;;;;5045388;28;20543;-84
2022/04/18 03:28:10;;;;;;;4.07;2.83;;;5.60;81.00;;;;;;5043218;28;20462;-83
2022/04/18 03:30:55;;;;;;;4.63;3.33;;;5.60;81.70;;;;;;5041383;28;20864;-84
2022/04/18 03:33:41;;;;;;;7.43;3.60;;;5.60;81.70;;;;;;5049073;28;20413;-84
2022/04/18 03:42:35;;;;;;;4.80;3.50;;;5.70;80.30;;;;;;5046443;28;20478;-84
2022/04/18 03:45:20;;;;;;;6.30;3.97;;;5.60;79.90;;;;;;5046201;28;20449;-84
2022/04/18 03:48:06;;;;;;;4.87;3.10;;;5.60;80.70;;;;;;5047729;28;20440;-84
2022/04/18 03:50:52;;;;;;;5.90;2.83;;;5.50;81.00;;;;;;5045841;28;20464;-85
2022/04/18 03:53:39;;;;;;;5.00;3.50;;;5.50;80.90;;;;;;5051105;28;20443;-84
2022/04/18 03:56:25;;;;;;;5.10;3.70;;;5.50;80.70;;;;;;5047658;28;20479;-84
2022/04/18 03:59:11;;;;;;;6.57;3.17;;;5.50;81.50;;;;;;5046590;28;20426;-85
2022/04/18 04:01:57;;;;;;;4.97;3.30;;;5.40;82.10;;;;;;5044661;28;20447;-84
2022/04/18 04:04:43;;;;;;;6.07;4.10;;;5.50;82.20;;;;;;5048120;28;20998;-85
2022/04/18 04:07:28;;;;;;;7.33;4.33;;;5.30;81.60;;;;;;5048279;28;20502;-83
2022/04/18 04:10:16;;;;;;;7.00;4.10;;;5.20;82.00;;;;;;5048329;28;21053;-84
2022/04/18 04:13:02;;;;;;;6.13;3.43;;;5.20;82.70;;;;;;5047869;28;20603;-85
2022/04/18 04:15:48;;;;;;;6.40;3.30;;;5.30;82.70;;;;;;5050385;28;20583;-84
2022/04/18 04:18:33;;;;;;;7.83;4.00;;;5.20;82.20;;;;;;5049566;28;20598;-84
2022/04/18 04:21:19;;;;;;;6.47;4.03;;;5.30;82.00;;;;;;5043837;28;20907;-83
2022/04/18 04:24:05;;;;;;;5.20;3.27;;;5.10;82.60;;;;;;5050836;28;20455;-85
2022/04/18 04:26:52;;;;;;;6.50;3.70;;;5.30;81.60;;;;;;5049288;28;20485;-84
2022/04/18 04:29:38;;;;;;;4.33;3.17;;;5.30;81.80;;;;;;5050227;28;20440;-84
2022/04/18 04:32:24;;;;;;;7.67;3.40;;;5.20;82.00;;;;;;5049513;28;20505;-84
2022/04/18 04:35:10;;;;;;;5.50;3.17;;;5.30;82.00;;;;;;5054149;28;20422;-84
2022/04/18 04:37:55;;;;;;;5.30;3.63;;;5.30;81.10;;;;;;5047517;28;20796;-84
2022/04/18 04:40:41;;;;;;;7.70;3.20;;;5.30;82.60;;;;;;5049353;28;20509;-85
2022/04/18 04:43:29;;;;;;;5.93;3.00;;;5.20;82.00;;;;;;5047289;28;20503;-84
2022/04/18 04:46:14;;;;;;;7.90;3.83;;;5.10;81.90;;;;;;5048934;28;20561;-84
2022/04/18 04:49:00;;;;;;;5.50;3.50;;;4.90;83.20;;;;;;5048795;28;20773;-85
2022/04/18 04:51:45;;;;;;;6.77;3.57;;;4.80;83.10;;;;;;5045815;28;20430;-84
2022/04/18 04:54:31;;;;;;;7.73;3.27;;;4.80;84.50;;;;;;5047909;28;20972;-84
2022/04/18 04:57:17;;;;;;;4.43;3.20;;;4.80;84.90;;;;;;5048196;28;20954;-83
2022/04/18 05:00:05;;;;;;;7.60;4.50;;;5.00;85.00;;;;;;5042908;28;20456;-83
2022/04/18 05:02:50;;;;;;;5.30;3.30;;;5.10;84.60;;;;;;5044504;28;20459;-83
2022/04/18 05:05:36;;;;;;;6.17;3.17;;;5.30;84.40;;;;;;5049388;28;20508;-84
2022/04/18 05:08:22;;;;;;;5.13;3.67;;;5.40;83.60;;;;;;5053980;28;20413;-85
2022/04/18 05:11:07;;;;;;;5.50;3.47;;;5.50;83.70;;;;;;5047749;28;20441;-84
2022/04/18 05:13:53;;;;;;;4.93;2.90;;;5.60;83.20;;;;;;5047351;28;20780;-85
2022/04/18 05:16:40;;;;;;;5.73;3.10;;;5.70;83.30;;;;;;5050287;28;21122;-83
2022/04/18 05:19:27;;;;;;;12.43;4.20;;;5.70;83.80;;;;;;5044739;28;20522;-85
2022/04/18 05:22:13;;;;;;;8.97;3.13;;;5.90;83.00;;;;;;5049762;28;20414;-84
2022/04/18 05:24:58;;;;;;;4.40;3.40;;;5.90;83.30;;;;;;5047539;28;20471;-84
2022/04/18 05:27:44;;;;;;;8.20;3.67;;;6.00;83.40;;;;;;5048127;28;20434;-84
2022/04/18 05:30:29;;;;;;;4.07;2.90;;;6.10;83.20;;;;;;5042266;28;20456;-84
2022/04/18 05:33:16;;;;;;;4.17;2.87;;;6.20;83.10;;;;;;5043642;28;20459;-84
2022/04/18 05:36:02;;;;;;;4.23;2.63;;;6.40;83.30;;;;;;5046453;28;20483;-84
2022/04/18 05:38:47;;;;;;;5.43;3.20;;;6.40;82.90;;;;;;5042762;28;20485;-84
2022/04/18 05:41:33;;;;;;;6.30;3.27;;;6.50;83.00;;;;;;5047822;28;20448;-84
2022/04/18 05:44:19;;;;;;;5.80;2.87;;;6.80;81.00;;;;;;5041187;28;20449;-84
2022/04/18 05:47:05;;;;;;;7.00;2.70;;;6.80;81.10;;;;;;5047173;28;20927;-84
2022/04/18 05:49:51;;;;;;;6.93;2.73;;;7.10;81.70;;;;;;5042552;28;20418;-84
2022/04/18 05:52:37;;;;;;;4.43;2.93;;;7.20;78.60;;;;;;5048346;28;20442;-84
2022/04/18 05:55:23;;;;;;;5.70;3.23;;;7.40;79.20;;;;;;5046753;28;20434;-83
2022/04/18 05:58:09;;;;;;;4.43;2.97;;;7.50;80.00;;;;;;5044943;28;20426;-85
2022/04/18 06:00:55;;;;;;;4.47;3.20;;;7.70;79.40;;;;;;5047652;28;20431;-85
2022/04/18 06:03:41;;;;;;;4.63;3.10;;;7.90;79.60;;;;;;5050038;28;20421;-84
2022/04/18 06:06:28;;;;;;;5.20;3.07;;;7.90;78.80;;;;;;5046317;28;20931;-84
2022/04/18 06:09:14;;;;;;;4.17;3.00;;;8.00;77.00;;;;;;5044068;28;20495;-85
2022/04/18 06:12:01;;;;;;;7.70;4.10;;;8.20;77.50;;;;;;5046050;28;20430;-84
2022/04/18 06:14:47;;;;;;;6.60;3.50;;;8.30;74.70;;;;;;5047991;28;20471;-85
2022/04/18 06:17:33;;;;;;;6.93;4.20;;;8.50;69.30;;;;;;5047375;28;20983;-86
2022/04/18 06:20:19;;;;;;;5.40;3.20;;;8.50;67.50;;;;;;5043517;28;20582;-86
2022/04/18 06:23:06;;;;;;;5.93;3.77;;;8.70;66.30;;;;;;5045910;28;20495;-85
2022/04/18 06:25:52;;;;;;;6.50;3.90;;;9.00;66.80;;;;;;5046071;28;20868;-85
2022/04/18 06:28:37;;;;;;;6.57;3.63;;;9.20;66.90;;;;;;5043011;28;20601;-83
2022/04/18 06:31:23;;;;;;;6.57;3.73;;;9.50;61.80;;;;;;5048294;28;20429;-83
2022/04/18 06:34:09;;;;;;;10.13;4.27;;;9.70;63.80;;;;;;5048603;28;20437;-84
2022/04/18 06:36:55;;;;;;;6.37;4.03;;;9.90;61.80;;;;;;5044840;28;20453;-84
2022/04/18 06:39:43;;;;;;;6.20;4.50;;;10.10;60.50;;;;;;5040363;28;20454;-84
2022/04/18 06:42:29;;;;;;;7.60;3.90;;;10.30;56.70;;;;;;5047903;28;21044;-84
2022/04/18 06:45:14;;;;;;;5.60;3.90;;;10.40;52.30;;;;;;5045552;28;20495;-84
2022/04/18 06:48:00;;;;;;;8.50;3.70;;;10.60;50.30;;;;;;5041271;28;20942;-84
2022/04/18 06:50:46;;;;;;;4.37;2.87;;;10.70;49.10;;;;;;5048997;28;20491;-84
2022/04/18 06:53:32;;;;;;;7.03;3.63;;;10.90;47.70;;;;;;5047027;28;20508;-83
2022/04/18 06:59:22;;;;;;;5.50;3.30;;;11.20;42.00;;;;;;5041966;28;20446;-84
2022/04/18 07:02:08;;;;;;;4.47;3.07;;;11.30;43.10;;;;;;5043581;28;20454;-84
2022/04/18 07:04:54;;;;;;;9.23;3.57;;;11.40;39.10;;;;;;5046637;28;20464;-85
2022/04/18 07:07:40;;;;;;;6.23;3.73;;;11.50;39.10;;;;;;5045501;28;20528;-83
2022/04/18 07:10:26;;;;;;;6.33;3.17;;;11.60;42.40;;;;;;5041736;28;22023;-84
2022/04/18 07:13:13;;;;;;;3.90;2.63;;;11.70;41.40;;;;;;5049544;28;20446;-84
2022/04/18 07:15:59;;;;;;;6.37;3.30;;;11.70;37.80;;;;;;5050546;28;20580;-84
2022/04/18 07:18:44;;;;;;;7.50;3.43;;;11.80;40.00;;;;;;5047559;28;21157;-85
2022/04/18 07:21:30;;;;;;;5.50;3.40;;;11.80;37.80;;;;;;5049125;28;20912;-84
2022/04/18 07:24:16;;;;;;;5.70;3.07;;;11.90;37.00;;;;;;5051321;28;21055;-84
2022/04/18 07:27:01;;;;;;;5.30;3.40;;;12.10;39.60;;;;;;5047553;28;20430;-84
2022/04/18 07:29:48;;;;;;;5.20;2.97;;;12.20;39.30;;;;;;5049589;28;20491;-85
2022/04/18 07:32:40;;;;;;;5.67;3.13;;;12.30;36.20;;;;;;5052045;28;20827;-85
2022/04/18 07:35:25;;;;;;;6.93;3.33;;;12.40;36.70;;;;;;5049236;28;20445;-83
2022/04/18 07:41:15;;;;;;;6.37;3.90;;;12.20;34.50;;;;;;5053800;28;20390;-84
2022/04/18 07:44:01;;;;;;;4.90;3.03;;;12.30;35.70;;;;;;5052887;28;20554;-84
2022/04/18 07:46:48;;;;;;;5.83;3.03;;;12.40;35.80;;;;;;5055525;28;20441;-83
2022/04/18 07:49:34;;;;;;;5.57;2.93;;;12.50;37.80;;;;;;5053403;28;20429;-83
2022/04/18 07:52:19;;;;;;;4.87;2.90;;;12.70;38.20;;;;;;5054540;28;20703;-83
2022/04/18 07:55:05;;;;;;;6.37;3.50;;;12.80;35.90;;;;;;5048256;28;20463;-83
2022/04/18 07:57:51;;;;;;;7.50;3.17;;;13.00;35.20;;;;;;5049253;28;20447;-84
2022/04/18 08:00:37;;;;;;;7.03;3.30;;;13.10;35.80;;;;;;5052507;28;20398;-84
2022/04/18 08:03:24;;;;;;;4.77;3.13;;;13.10;32.20;;;;;;5048224;28;20916;-83
2022/04/18 08:06:10;;;;;;;5.10;3.23;;;13.20;34.80;;;;;;5046352;28;20517;-83
2022/04/18 08:08:56;;;;;;;5.27;3.43;;;13.20;36.50;;;;;;5045572;28;20399;-83
2022/04/18 08:11:41;;;;;;;4.57;3.60;;;13.40;35.50;;;;;;5048148;28;20818;-84
2022/04/18 08:14:27;;;;;;;4.30;3.00;;;13.50;35.60;;;;;;5045955;28;20417;-83
2022/04/18 08:17:13;;;;;;;7.57;3.00;;;13.60;34.80;;;;;;5044545;28;20554;-84
2022/04/18 08:20:00;;;;;;;5.40;3.17;;;13.60;34.70;;;;;;5048161;28;20988;-83
2022/04/18 08:22:46;;;;;;;5.87;2.70;;;13.70;35.10;;;;;;5045992;28;20443;-83
2022/04/18 08:25:32;;;;;;;5.73;2.90;;;13.70;32.80;;;;;;5046047;28;20467;-84
2022/04/18 08:28:17;;;;;;;5.00;3.10;;;13.90;34.80;;;;;;5042418;28;20519;-83
2022/04/18 08:31:03;;;;;;;5.40;2.77;;;14.00;36.40;;;;;;5050679;28;21299;-83
2022/04/18 08:33:49;;;;;;;4.10;2.70;;;14.10;36.90;;;;;;5048603;28;20463;-83
2022/04/18 08:36:36;;;;;;;5.27;3.23;;;14.20;33.40;;;;;;5044279;28;20487;-84
2022/04/18 08:39:22;;;;;;;3.90;2.53;;;14.20;33.40;;;;;;5046422;28;20444;-83
2022/04/18 08:42:07;;;;;;;6.07;2.83;;;14.30;35.30;;;;;;5042329;28;20439;-83
2022/04/18 08:44:54;;;;;;;5.27;2.73;;;14.40;33.80;;;;;;5048885;28;20438;-84
2022/04/18 08:53:50;;;;;;;4.67;2.67;;;14.70;30.20;;;;;;5047808;28;20468;-84
2022/04/18 08:56:36;;;;;;;4.60;2.60;;;14.70;31.50;;;;;;5048728;28;20437;-84
2022/04/18 08:59:22;;;;;;;4.23;2.43;;;14.80;31.00;;;;;;5043443;28;20825;-84
2022/04/18 09:02:07;;;;;;;4.03;2.60;;;14.90;30.70;;;;;;5042783;28;20452;-83
2022/04/18 09:04:55;;;;;;;6.20;2.20;;;14.90;30.10;;;;;;5044473;28;20922;-84
2022/04/18 09:07:43;;;;;;;6.53;2.80;;;15.00;31.30;;;;;;5047758;28;20418;-84
2022/04/18 09:10:30;;;;;;;5.13;2.90;;;15.00;29.80;;;;;;5049353;28;20421;-84
2022/04/18 09:13:16;;;;;;;6.20;2.67;;;15.10;29.90;;;;;;5042396;28;20693;-84
2022/04/18 09:16:04;;;;;;;5.37;2.83;;;15.20;30.30;;;;;;5048422;28;20558;-84
2022/04/18 09:19:05;;;;;;;7.13;2.43;;;15.30;30.70;;;;;;5040344;28;20447;-84
2022/04/18 09:21:58;;;;;;;6.13;2.70;;;15.30;30.60;;;;;;5043513;28;20948;-84
2022/04/18 09:24:47;;;;;;;4.73;2.17;;;15.40;30.80;;;;;;5044791;28;20482;-83
2022/04/18 09:27:33;;;;;;;3.40;2.10;;;15.50;30.40;;;;;;5043988;28;21072;-84
2022/04/18 09:30:19;;;;;;;2.90;2.03;;;15.60;31.50;;;;;;5047777;28;20444;-84
2022/04/18 09:33:06;;;;;;;4.33;2.40;;;15.50;29.80;;;;;;5047257;28;20510;-84
2022/04/18 09:35:52;;;;;;;6.10;1.90;;;15.70;29.20;;;;;;5047873;28;20463;-84
2022/04/18 09:38:40;;;;;;;3.90;2.40;;;15.70;27.30;;;;;;5046341;28;20637;-84
2022/04/18 09:41:27;;;;;;;4.00;2.13;;;15.80;28.20;;;;;;5043648;28;20459;-84
2022/04/18 09:44:24;;;;;;;5.73;1.97;;;15.90;29.30;;;;;;5046225;28;20498;-84
2022/04/18 09:47:16;;;;;;;7.07;2.10;;;15.90;28.70;;;;;;5045149;28;20470;-85
2022/04/18 09:50:58;;;;;;;8.33;2.13;;;16.00;28.70;;;;;;5046586;28;20804;-84
2022/04/18 09:53:24;;;;;;;4.70;2.20;;;16.10;29.20;;;;;;5045854;28;20470;-84
2022/04/18 09:56:15;;;;;;;3.67;1.77;;;16.30;29.70;;;;;;5047379;28;20518;-84
2022/04/18 09:59:14;;;;;;;2.80;1.80;;;16.30;27.30;;;;;;5154582;27;21139;-78
2022/04/18 10:02:01;;;;;;;5.60;2.10;;;16.30;27.90;;;;;;5115986;28;20452;-77
2022/04/18 10:04:47;;;;;;;3.93;2.27;;;16.40;27.90;;;;;;5126598;28;20440;-77
2022/04/18 10:07:33;;;;;;;5.47;2.17;;;16.50;26.30;;;;;;5126459;28;20524;-76
2022/04/18 10:10:20;;;;;;;3.97;2.03;;;16.50;27.10;;;;;;5126332;28;20928;-77
2022/04/18 10:13:06;;;;;;;5.27;2.03;;;16.60;27.10;;;;;;5128076;28;20462;-77
2022/04/18 10:15:55;;;;;;;3.73;2.10;;;16.60;26.90;;;;;;5126336;28;20439;-77
2022/04/18 10:18:45;;;;;;;5.40;2.27;;;16.70;27.80;;;;;;5128091;28;20597;-77
2022/04/18 10:21:32;;;;;;;3.40;1.90;;;16.70;27.80;;;;;;5117737;27;20460;-78
2022/04/18 10:24:49;;;;;;;5.17;1.87;;;16.80;26.50;;;;;;5128508;28;20499;-76
2022/04/18 10:27:57;;;;;;;4.90;2.20;;;16.90;28.70;;;;;;5130708;28;20409;-77
2022/04/18 10:30:48;;;;;;;3.30;2.30;;;17.10;29.20;;;;;;5128359;28;20551;-77
2022/04/18 10:33:37;;;;;;;2.57;1.67;;;17.30;26.20;;;;;;5124259;28;21020;-77
2022/04/18 10:36:27;;;;;;;8.57;2.57;;;17.30;25.90;;;;;;5128359;27;20419;-77
2022/04/18 10:39:13;;;;;;;4.00;2.20;;;17.40;27.00;;;;;;5119476;28;20471;-79
2022/04/18 10:41:59;;;;;;;8.10;2.70;;;17.40;25.20;;;;;;5124131;27;20459;-77
2022/04/18 10:44:57;;;;;;;3.63;2.33;;;17.40;27.30;;;;;;5129510;28;20520;-77
2022/04/18 10:48:08;;;;;;;3.83;2.30;;;17.50;26.60;;;;;;5127211;28;20532;-77
2022/04/18 10:50:55;;;;;;;1473.43;382.83;;;17.70;27.80;;;;;;5123708;28;20461;-77
2022/04/18 10:53:41;;;;;;;93.20;62.43;;;17.80;24.60;;;;;;5125801;28;20440;-77
2022/04/18 10:56:45;;;;;;;4.90;3.10;;;18.00;27.90;;;;;;5125110;28;20809;-76
2022/04/18 10:59:32;;;;;;;4.67;3.10;;;18.10;25.70;;;;;;5124865;28;20468;-76
2022/04/18 11:02:39;;;;;;;6.00;2.23;;;18.10;25.90;;;;;;5122883;28;20522;-75
2022/04/18 11:05:36;;;;;;;3.87;2.40;;;18.20;26.00;;;;;;5127269;28;20518;-76
2022/04/18 11:08:30;;;;;;;4.10;2.20;;;18.30;27.90;;;;;;5124720;28;20440;-76
2022/04/18 11:11:17;;;;;;;5.30;2.60;;;18.40;25.90;;;;;;5108711;28;20473;-76
2022/04/18 11:14:15;;;;;;;5.30;2.00;;;18.50;25.70;;;;;;5108394;28;20939;-76
2022/04/18 11:17:01;;;;;;;7.40;2.53;;;18.50;25.20;;;;;;5112876;28;20453;-76
2022/04/18 11:19:47;;;;;;;3.23;2.00;;;18.50;26.20;;;;;;5105043;28;21215;-76
2022/04/18 11:22:33;;;;;;;4.40;2.00;;;18.60;27.10;;;;;;5113996;28;20506;-76
2022/04/18 11:25:20;;;;;;;5.37;2.27;;;18.70;25.40;;;;;;5114143;28;20567;-75
2022/04/18 11:28:06;;;;;;;4.17;2.37;;;18.80;24.40;;;;;;5113050;28;20418;-75
2022/04/18 11:30:52;;;;;;;4.97;2.27;;;18.70;26.40;;;;;;5114079;28;20461;-75
2022/04/18 11:33:41;;;;;;;5.20;2.10;;;18.80;26.20;;;;;;5114502;28;20441;-75
2022/04/18 11:36:28;;;;;;;3.53;2.23;;;18.80;25.40;;;;;;5111434;28;20466;-76
2022/04/18 11:39:15;;;;;;;7.60;1.87;;;19.00;26.70;;;;;;5104788;28;20468;-76
2022/04/18 11:42:06;;;;;;;3.03;1.80;;;19.20;25.00;;;;;;5116096;28;20939;-76
2022/04/18 11:44:53;;;;;;;4.83;2.23;;;19.30;25.90;;;;;;5113063;28;20449;-76
2022/04/18 11:47:43;;;;;;;3.20;1.70;;;19.40;25.30;;;;;;5109180;28;20440;-75
2022/04/18 11:50:29;;;;;;;3.13;1.70;;;19.50;23.20;;;;;;5106044;28;20489;-75
2022/04/18 11:53:15;;;;;;;5.00;2.50;;;19.60;24.30;;;;;;5110373;28;20467;-76
2022/04/18 11:56:04;;;;;;;4.87;2.50;;;19.60;22.80;;;;;;5110814;28;20453;-76
2022/04/18 11:58:51;;;;;;;4.43;1.90;;;19.60;25.20;;;;;;5115535;28;20469;-75
2022/04/18 12:07:44;;;;;;;3.10;1.77;;;19.80;22.20;;;;;;5119229;27;20485;-76
2022/04/18 12:10:32;;;;;;;5.70;1.90;;;19.80;22.60;;;;;;5112650;28;21037;-76
2022/04/18 12:13:18;;;;;;;3.50;2.00;;;19.80;21.70;;;;;;5116621;28;20490;-76
2022/04/18 12:16:05;;;;;;;2.93;1.50;;;19.90;22.60;;;;;;5117987;28;20448;-76
2022/04/18 12:18:55;;;;;;;3.10;1.80;;;20.10;22.00;;;;;;5111179;28;20461;-76
2022/04/18 12:21:41;;;;;;;3.20;1.90;;;20.20;21.80;;;;;;5111294;28;20448;-76
2022/04/18 12:24:26;;;;;;;3.67;2.03;;;20.30;21.60;;;;;;5111501;28;20427;-76
2022/04/18 12:27:12;;;;;;;3.97;2.03;;;20.30;21.00;;;;;;5105808;28;20442;-76
2022/04/18 12:29:58;;;;;;;2.87;1.80;;;20.30;22.70;;;;;;5108775;28;20461;-76
2022/04/18 12:32:47;;;;;;;4.97;2.23;;;20.40;21.40;;;;;;5111662;27;20534;-76
2022/04/18 12:35:37;;;;;;;4.40;1.80;;;20.50;22.30;;;;;;5111471;28;20442;-76
2022/04/18 12:38:31;;;;;;;3.83;1.80;;;20.60;21.20;;;;;;5102457;28;20521;-76
2022/04/18 12:41:27;;;;;;;4.43;2.47;;;20.70;22.20;;;;;;5115970;28;21013;-76
2022/04/18 12:44:14;;;;;;;4.03;2.13;;;20.80;23.00;;;;;;5101917;28;20489;-76
2022/04/18 12:47:02;;;;;;;3.53;2.03;;;20.70;20.10;;;;;;5111830;28;20422;-76
2022/04/18 12:50:08;;;;;;;5.27;2.23;;;20.90;22.30;;;;;;5111517;28;20464;-76
2022/04/18 12:52:54;;;;;;;3.70;1.90;;;21.10;22.40;;;;;;5113168;28;20408;-76
2022/04/18 12:55:39;;;;;;;7.90;1.70;;;21.30;20.70;;;;;;5108520;28;20446;-76
2022/04/18 12:58:25;;;;;;;4.83;1.93;;;21.50;19.90;;;;;;5104781;28;20473;-76
2022/04/18 13:01:22;;;;;;;3.03;1.60;;;21.60;20.50;;;;;;5109139;28;20446;-76
2022/04/18 13:04:21;;;;;;;2.93;1.70;;;21.70;20.00;;;;;;5108144;28;20441;-77
2022/04/18 13:07:10;;;;;;;4.03;1.70;;;22.00;19.80;;;;;;5114487;28;20452;-77
2022/04/18 13:10:02;;;;;;;3.10;1.90;;;22.10;19.10;;;;;;5112375;28;20519;-79
2022/04/18 13:12:48;;;;;;;3.47;2.03;;;22.30;18.30;;;;;;5113647;28;20442;-79
2022/04/18 13:15:35;;;;;;;4.97;2.10;;;22.40;19.30;;;;;;5117564;28;20976;-78
2022/04/18 13:18:22;;;;;;;3.20;1.70;;;22.50;19.10;;;;;;5117927;28;20463;-78
2022/04/18 13:21:08;;;;;;;4.83;2.30;;;22.40;19.20;;;;;;5112163;28;21106;-79
2022/04/18 13:23:56;;;;;;;3.20;1.90;;;22.20;19.80;;;;;;5112980;28;20531;-79
2022/04/18 13:26:43;;;;;;;3.40;2.30;;;22.00;18.90;;;;;;5113035;28;20918;-78
2022/04/18 13:29:30;;;;;;;4.47;2.00;;;21.90;19.60;;;;;;5113205;28;20468;-79
2022/04/18 13:32:16;;;;;;;3.20;1.90;;;22.10;19.90;;;;;;5110431;28;20425;-79
2022/04/18 13:35:03;;;;;;;3.70;1.97;;;22.50;19.30;;;;;;5119057;28;20455;-79
2022/04/18 13:37:52;;;;;;;3.60;1.70;;;22.70;19.40;;;;;;5116676;28;20516;-79
2022/04/18 13:40:41;;;;;;;4.50;2.50;;;22.70;18.70;;;;;;5110147;28;20484;-78
2022/04/18 13:43:27;;;;;;;3.90;1.83;;;22.80;19.10;;;;;;5114200;28;20557;-79
2022/04/18 13:46:12;;;;;;;3.53;1.70;;;23.00;16.80;;;;;;5109994;28;20438;-78
2022/04/18 13:48:59;;;;;;;2.60;1.40;;;23.00;17.50;;;;;;5108690;28;20445;-77
2022/04/18 13:51:45;;;;;;;3.63;1.60;;;23.00;18.50;;;;;;5114906;28;20847;-79
2022/04/18 13:54:31;;;;;;;3.40;1.60;;;23.00;18.40;;;;;;5113030;28;20440;-76
2022/04/18 13:57:18;;;;;;;4.27;2.10;;;23.10;16.40;;;;;;5117076;28;20452;-79
2022/04/18 14:00:05;;;;;;;5.50;2.20;;;23.10;16.00;;;;;;5118640;28;20500;-78
2022/04/18 14:02:50;;;;;;;3.73;1.60;;;23.20;16.90;;;;;;5120471;28;20436;-79
2022/04/18 14:05:37;;;;;;;3.90;1.63;;;23.20;17.50;;;;;;5112632;28;20495;-79
2022/04/18 14:08:23;;;;;;;5.90;1.50;;;23.20;17.60;;;;;;5112801;28;20482;-80
2022/04/18 14:11:10;;;;;;;3.30;1.70;;;23.30;17.70;;;;;;5115002;28;20477;-78
2022/04/18 14:13:57;;;;;;;2.80;1.40;;;23.50;17.10;;;;;;5116445;28;20540;-80
2022/04/18 14:22:51;;;;;;;3.40;1.70;;;23.50;17.20;;;;;;5110861;28;20537;-78
2022/04/18 14:25:40;;;;;;;2.43;1.53;;;23.50;17.70;;;;;;5109880;28;20443;-78
2022/04/18 14:28:26;;;;;;;2.63;1.50;;;23.40;16.90;;;;;;5106637;28;20445;-78
2022/04/18 14:31:13;;;;;;;4.27;1.77;;;23.50;17.10;;;;;;5113486;28;20472;-79
2022/04/18 14:33:59;;;;;;;3.40;2.03;;;23.60;17.10;;;;;;5112230;28;20448;-78
2022/04/18 14:36:46;;;;;;;3.40;1.70;;;23.70;16.60;;;;;;5117827;28;20478;-79
2022/04/18 14:39:32;;;;;;;3.00;1.93;;;23.60;16.50;;;;;;5112706;28;20476;-79
2022/04/18 14:42:17;;;;;;;2.67;1.53;;;23.30;16.40;;;;;;5112865;28;20483;-78
2022/04/18 14:45:04;;;;;;;3.93;1.70;;;22.90;17.90;;;;;;5119276;28;20447;-78
2022/04/18 14:47:55;;;;;;;3.83;2.00;;;22.60;16.70;;;;;;5113168;28;20554;-78
2022/04/18 14:50:41;;;;;;;3.07;1.40;;;22.60;17.90;;;;;;5112930;28;20457;-79
2022/04/18 14:53:27;;;;;;;3.37;1.80;;;22.50;17.00;;;;;;5116243;28;20527;-78
2022/04/18 14:56:13;;;;;;;3.37;1.87;;;22.60;18.20;;;;;;5114698;28;20456;-77
2022/04/18 14:58:59;;;;;;;3.40;2.00;;;22.80;17.20;;;;;;5117237;28;20510;-78
2022/04/18 15:01:45;;;;;;;2.70;1.70;;;22.80;17.20;;;;;;5120958;28;20444;-78
2022/04/18 15:04:34;;;;;;;2.80;1.50;;;22.60;17.70;;;;;;5117819;28;20497;-78
2022/04/18 15:07:20;;;;;;;3.93;2.37;;;22.40;17.40;;;;;;5116970;28;20465;-78
2022/04/18 15:10:22;;;;;;;2.73;1.60;;;22.30;16.80;;;;;;5109207;28;20576;-78